sensor_id;sensor_type;location;lat;lon;timestamp;P1;durP1;ratioP1;P2;durP2;ratioP2
71888;SDS011;59762;49.998;14.858;2023-07-13T00:01:27;8.13;;;5.20;;
71888;SDS011;59762;49.998;14.858;2023-07-13T00:03:53;6.38;;;4.47;;
71888;SDS011;59762;49.998;14.858;2023-07-13T00:06:19;14.38;;;5.28;;
71888;SDS011;59762;49.998;14.858;2023-07-13T00:08:46;7.00;;;4.57;;
71888;SDS011;59762;49.998;14.858;2023-07-13T00:11:13;7.80;;;4.60;;
71888;SDS011;59762;49.998;14.858;2023-07-13T00:13:39;6.45;;;4.40;;
71888;SDS011;59762;49.998;14.858;2023-07-13T00:16:06;7.72;;;4.82;;
71888;SDS011;59762;49.998;14.858;2023-07-13T00:18:32;6.20;;;4.40;;
71888;SDS011;59762;49.998;14.858;2023-07-13T00:20:58;8.10;;;4.82;;
71888;SDS011;59762;49.998;14.858;2023-07-13T00:23:34;9.98;;;4.93;;
71888;SDS011;59762;49.998;14.858;2023-07-13T00:26:02;7.18;;;4.38;;
71888;SDS011;59762;49.998;14.858;2023-07-13T00:28:29;5.85;;;4.95;;
71888;SDS011;59762;49.998;14.858;2023-07-13T00:30:55;7.32;;;4.45;;
71888;SDS011;59762;49.998;14.858;2023-07-13T00:33:20;7.15;;;4.70;;
71888;SDS011;59762;49.998;14.858;2023-07-13T00:35:48;7.93;;;4.93;;
71888;SDS011;59762;49.998;14.858;2023-07-13T00:38:14;9.93;;;4.63;;
71888;SDS011;59762;49.998;14.858;2023-07-13T00:40:40;6.07;;;4.32;;
71888;SDS011;59762;49.998;14.858;2023-07-13T00:43:13;7.43;;;4.72;;
71888;SDS011;59762;49.998;14.858;2023-07-13T00:48:10;6.53;;;4.43;;
71888;SDS011;59762;49.998;14.858;2023-07-13T00:50:37;7.80;;;5.00;;
71888;SDS011;59762;49.998;14.858;2023-07-13T00:53:04;11.20;;;4.63;;
71888;SDS011;59762;49.998;14.858;2023-07-13T00:55:30;7.63;;;4.57;;
71888;SDS011;59762;49.998;14.858;2023-07-13T00:57:55;6.60;;;4.38;;
71888;SDS011;59762;49.998;14.858;2023-07-13T01:00:21;6.70;;;4.53;;
71888;SDS011;59762;49.998;14.858;2023-07-13T01:02:48;8.82;;;4.88;;
71888;SDS011;59762;49.998;14.858;2023-07-13T01:05:18;6.07;;;4.70;;
71888;SDS011;59762;49.998;14.858;2023-07-13T01:07:45;6.22;;;4.32;;
71888;SDS011;59762;49.998;14.858;2023-07-13T01:10:13;7.20;;;4.78;;
71888;SDS011;59762;49.998;14.858;2023-07-13T01:12:39;5.85;;;4.32;;
71888;SDS011;59762;49.998;14.858;2023-07-13T01:15:32;7.22;;;4.65;;
71888;SDS011;59762;49.998;14.858;2023-07-13T01:18:12;5.75;;;4.40;;
71888;SDS011;59762;49.998;14.858;2023-07-13T01:23:22;8.90;;;5.07;;
71888;SDS011;59762;49.998;14.858;2023-07-13T01:25:49;10.52;;;4.75;;
71888;SDS011;59762;49.998;14.858;2023-07-13T01:28:15;7.82;;;4.32;;
71888;SDS011;59762;49.998;14.858;2023-07-13T01:30:42;5.55;;;4.50;;
71888;SDS011;59762;49.998;14.858;2023-07-13T01:33:11;7.78;;;4.90;;
71888;SDS011;59762;49.998;14.858;2023-07-13T01:35:39;6.07;;;4.63;;
71888;SDS011;59762;49.998;14.858;2023-07-13T01:38:05;6.40;;;4.40;;
71888;SDS011;59762;49.998;14.858;2023-07-13T01:40:31;9.35;;;4.72;;
71888;SDS011;59762;49.998;14.858;2023-07-13T01:42:57;11.73;;;5.53;;
71888;SDS011;59762;49.998;14.858;2023-07-13T01:45:23;6.85;;;4.63;;
71888;SDS011;59762;49.998;14.858;2023-07-13T01:47:49;6.53;;;4.63;;
71888;SDS011;59762;49.998;14.858;2023-07-13T01:50:15;8.43;;;5.00;;
71888;SDS011;59762;49.998;14.858;2023-07-13T01:52:41;7.88;;;4.97;;
71888;SDS011;59762;49.998;14.858;2023-07-13T01:55:06;7.78;;;4.63;;
71888;SDS011;59762;49.998;14.858;2023-07-13T01:57:32;11.50;;;5.10;;
71888;SDS011;59762;49.998;14.858;2023-07-13T01:59:58;8.68;;;4.95;;
71888;SDS011;59762;49.998;14.858;2023-07-13T02:02:24;8.65;;;4.78;;
71888;SDS011;59762;49.998;14.858;2023-07-13T02:04:50;10.30;;;5.53;;
71888;SDS011;59762;49.998;14.858;2023-07-13T02:07:16;7.25;;;4.97;;
71888;SDS011;59762;49.998;14.858;2023-07-13T02:09:41;6.22;;;4.38;;
71888;SDS011;59762;49.998;14.858;2023-07-13T02:12:07;9.52;;;4.72;;
71888;SDS011;59762;49.998;14.858;2023-07-13T02:14:33;9.10;;;4.72;;
71888;SDS011;59762;49.998;14.858;2023-07-13T02:16:59;10.07;;;5.05;;
71888;SDS011;59762;49.998;14.858;2023-07-13T02:19:25;9.00;;;5.50;;
71888;SDS011;59762;49.998;14.858;2023-07-13T02:21:50;9.40;;;5.40;;
71888;SDS011;59762;49.998;14.858;2023-07-13T02:24:16;9.43;;;5.00;;
71888;SDS011;59762;49.998;14.858;2023-07-13T02:26:43;8.15;;;5.30;;
71888;SDS011;59762;49.998;14.858;2023-07-13T02:29:09;8.25;;;4.70;;
71888;SDS011;59762;49.998;14.858;2023-07-13T02:31:35;6.35;;;5.15;;
71888;SDS011;59762;49.998;14.858;2023-07-13T02:34:01;10.02;;;5.18;;
71888;SDS011;59762;49.998;14.858;2023-07-13T02:36:28;7.05;;;4.68;;
71888;SDS011;59762;49.998;14.858;2023-07-13T02:38:54;6.82;;;5.10;;
71888;SDS011;59762;49.998;14.858;2023-07-13T02:41:19;6.93;;;4.80;;
71888;SDS011;59762;49.998;14.858;2023-07-13T02:43:45;9.23;;;5.35;;
71888;SDS011;59762;49.998;14.858;2023-07-13T02:46:10;9.05;;;5.43;;
71888;SDS011;59762;49.998;14.858;2023-07-13T02:48:37;10.48;;;5.88;;
71888;SDS011;59762;49.998;14.858;2023-07-13T02:51:03;9.32;;;5.30;;
71888;SDS011;59762;49.998;14.858;2023-07-13T02:53:30;7.97;;;5.30;;
71888;SDS011;59762;49.998;14.858;2023-07-13T02:55:55;10.63;;;5.78;;
71888;SDS011;59762;49.998;14.858;2023-07-13T02:58:21;7.32;;;5.20;;
71888;SDS011;59762;49.998;14.858;2023-07-13T03:00:47;8.20;;;5.53;;
71888;SDS011;59762;49.998;14.858;2023-07-13T03:03:15;9.27;;;5.25;;
71888;SDS011;59762;49.998;14.858;2023-07-13T03:05:42;7.80;;;5.57;;
71888;SDS011;59762;49.998;14.858;2023-07-13T03:08:10;10.25;;;5.20;;
71888;SDS011;59762;49.998;14.858;2023-07-13T03:10:36;8.10;;;5.32;;
71888;SDS011;59762;49.998;14.858;2023-07-13T03:13:03;8.02;;;5.07;;
71888;SDS011;59762;49.998;14.858;2023-07-13T03:15:28;9.55;;;5.45;;
71888;SDS011;59762;49.998;14.858;2023-07-13T03:17:54;8.65;;;5.13;;
71888;SDS011;59762;49.998;14.858;2023-07-13T03:20:20;7.45;;;4.68;;
71888;SDS011;59762;49.998;14.858;2023-07-13T03:22:45;7.75;;;4.88;;
71888;SDS011;59762;49.998;14.858;2023-07-13T03:25:11;9.45;;;5.10;;
71888;SDS011;59762;49.998;14.858;2023-07-13T03:27:37;6.10;;;5.15;;
71888;SDS011;59762;49.998;14.858;2023-07-13T03:30:06;7.40;;;5.43;;
71888;SDS011;59762;49.998;14.858;2023-07-13T03:32:32;8.65;;;4.95;;
71888;SDS011;59762;49.998;14.858;2023-07-13T03:34:58;7.20;;;5.10;;
71888;SDS011;59762;49.998;14.858;2023-07-13T03:37:24;8.25;;;5.13;;
71888;SDS011;59762;49.998;14.858;2023-07-13T03:39:50;8.40;;;6.15;;
71888;SDS011;59762;49.998;14.858;2023-07-13T03:42:16;7.22;;;4.70;;
71888;SDS011;59762;49.998;14.858;2023-07-13T03:44:42;5.90;;;4.88;;
71888;SDS011;59762;49.998;14.858;2023-07-13T03:47:11;7.22;;;4.80;;
71888;SDS011;59762;49.998;14.858;2023-07-13T03:49:37;7.72;;;4.47;;
71888;SDS011;59762;49.998;14.858;2023-07-13T03:52:03;7.47;;;5.10;;
71888;SDS011;59762;49.998;14.858;2023-07-13T03:54:29;11.45;;;5.07;;
71888;SDS011;59762;49.998;14.858;2023-07-13T03:56:55;8.45;;;4.78;;
71888;SDS011;59762;49.998;14.858;2023-07-13T03:59:21;10.10;;;4.95;;
71888;SDS011;59762;49.998;14.858;2023-07-13T04:01:47;6.72;;;4.55;;
71888;SDS011;59762;49.998;14.858;2023-07-13T04:04:12;7.90;;;4.40;;
71888;SDS011;59762;49.998;14.858;2023-07-13T04:06:38;6.75;;;5.15;;
71888;SDS011;59762;49.998;14.858;2023-07-13T04:09:04;8.95;;;4.60;;
71888;SDS011;59762;49.998;14.858;2023-07-13T04:11:34;9.68;;;5.60;;
71888;SDS011;59762;49.998;14.858;2023-07-13T04:14:03;7.53;;;4.90;;
71888;SDS011;59762;49.998;14.858;2023-07-13T04:16:29;8.30;;;4.80;;
71888;SDS011;59762;49.998;14.858;2023-07-13T04:18:55;7.35;;;4.97;;
71888;SDS011;59762;49.998;14.858;2023-07-13T04:21:25;9.07;;;4.97;;
71888;SDS011;59762;49.998;14.858;2023-07-13T04:23:55;8.85;;;5.25;;
71888;SDS011;59762;49.998;14.858;2023-07-13T04:26:21;9.13;;;4.88;;
71888;SDS011;59762;49.998;14.858;2023-07-13T04:28:48;6.05;;;4.55;;
71888;SDS011;59762;49.998;14.858;2023-07-13T04:31:14;5.43;;;3.80;;
71888;SDS011;59762;49.998;14.858;2023-07-13T04:33:40;6.68;;;3.60;;
71888;SDS011;59762;49.998;14.858;2023-07-13T04:36:06;4.60;;;3.40;;
71888;SDS011;59762;49.998;14.858;2023-07-13T04:38:35;4.93;;;3.17;;
71888;SDS011;59762;49.998;14.858;2023-07-13T04:41:05;5.55;;;3.50;;
71888;SDS011;59762;49.998;14.858;2023-07-13T04:43:32;5.80;;;2.78;;
71888;SDS011;59762;49.998;14.858;2023-07-13T04:46:02;3.97;;;3.45;;
71888;SDS011;59762;49.998;14.858;2023-07-13T04:48:38;5.03;;;3.15;;
71888;SDS011;59762;49.998;14.858;2023-07-13T04:51:04;7.70;;;2.80;;
71888;SDS011;59762;49.998;14.858;2023-07-13T04:53:30;3.92;;;3.00;;
71888;SDS011;59762;49.998;14.858;2023-07-13T04:55:57;3.80;;;2.65;;
71888;SDS011;59762;49.998;14.858;2023-07-13T04:58:24;5.70;;;2.90;;
71888;SDS011;59762;49.998;14.858;2023-07-13T05:00:50;4.50;;;2.75;;
71888;SDS011;59762;49.998;14.858;2023-07-13T05:03:16;3.63;;;2.67;;
71888;SDS011;59762;49.998;14.858;2023-07-13T05:05:42;4.30;;;2.45;;
71888;SDS011;59762;49.998;14.858;2023-07-13T05:08:07;4.95;;;2.67;;
71888;SDS011;59762;49.998;14.858;2023-07-13T05:10:33;3.83;;;2.03;;
71888;SDS011;59762;49.998;14.858;2023-07-13T05:13:00;3.30;;;2.60;;
71888;SDS011;59762;49.998;14.858;2023-07-13T05:15:26;2.92;;;2.03;;
71888;SDS011;59762;49.998;14.858;2023-07-13T05:17:52;3.28;;;2.25;;
71888;SDS011;59762;49.998;14.858;2023-07-13T05:20:18;3.10;;;2.35;;
71888;SDS011;59762;49.998;14.858;2023-07-13T05:22:44;3.05;;;2.08;;
71888;SDS011;59762;49.998;14.858;2023-07-13T05:25:12;4.18;;;2.25;;
71888;SDS011;59762;49.998;14.858;2023-07-13T05:27:39;3.03;;;1.90;;
71888;SDS011;59762;49.998;14.858;2023-07-13T05:30:04;3.15;;;2.10;;
71888;SDS011;59762;49.998;14.858;2023-07-13T05:32:31;4.43;;;2.05;;
71888;SDS011;59762;49.998;14.858;2023-07-13T05:34:56;6.28;;;2.40;;
71888;SDS011;59762;49.998;14.858;2023-07-13T05:37:22;3.08;;;1.90;;
71888;SDS011;59762;49.998;14.858;2023-07-13T05:39:48;4.20;;;2.20;;
71888;SDS011;59762;49.998;14.858;2023-07-13T05:42:14;2.92;;;2.22;;
71888;SDS011;59762;49.998;14.858;2023-07-13T05:44:39;5.00;;;2.13;;
71888;SDS011;59762;49.998;14.858;2023-07-13T05:47:05;3.33;;;1.90;;
71888;SDS011;59762;49.998;14.858;2023-07-13T05:49:31;2.55;;;1.65;;
71888;SDS011;59762;49.998;14.858;2023-07-13T05:51:57;6.90;;;2.28;;
71888;SDS011;59762;49.998;14.858;2023-07-13T05:54:22;3.00;;;1.90;;
71888;SDS011;59762;49.998;14.858;2023-07-13T05:56:48;3.70;;;2.08;;
71888;SDS011;59762;49.998;14.858;2023-07-13T05:59:14;2.45;;;2.00;;
71888;SDS011;59762;49.998;14.858;2023-07-13T06:01:40;2.65;;;1.88;;
71888;SDS011;59762;49.998;14.858;2023-07-13T06:04:06;3.70;;;2.17;;
71888;SDS011;59762;49.998;14.858;2023-07-13T06:06:32;3.55;;;1.90;;
71888;SDS011;59762;49.998;14.858;2023-07-13T06:08:58;6.18;;;2.47;;
71888;SDS011;59762;49.998;14.858;2023-07-13T06:11:24;4.47;;;2.20;;
71888;SDS011;59762;49.998;14.858;2023-07-13T06:13:51;2.35;;;1.90;;
71888;SDS011;59762;49.998;14.858;2023-07-13T06:16:17;3.90;;;1.95;;
71888;SDS011;59762;49.998;14.858;2023-07-13T06:18:43;2.78;;;2.00;;
71888;SDS011;59762;49.998;14.858;2023-07-13T06:21:14;3.67;;;2.20;;
71888;SDS011;59762;49.998;14.858;2023-07-13T06:23:41;4.25;;;2.30;;
71888;SDS011;59762;49.998;14.858;2023-07-13T06:26:07;3.53;;;2.00;;
71888;SDS011;59762;49.998;14.858;2023-07-13T06:28:34;3.15;;;2.60;;
71888;SDS011;59762;49.998;14.858;2023-07-13T06:31:01;3.10;;;1.90;;
71888;SDS011;59762;49.998;14.858;2023-07-13T06:33:27;5.00;;;1.98;;
71888;SDS011;59762;49.998;14.858;2023-07-13T06:35:53;2.55;;;2.00;;
71888;SDS011;59762;49.998;14.858;2023-07-13T06:38:20;2.20;;;1.70;;
71888;SDS011;59762;49.998;14.858;2023-07-13T06:40:46;2.83;;;2.00;;
71888;SDS011;59762;49.998;14.858;2023-07-13T06:43:11;1.90;;;1.63;;
71888;SDS011;59762;49.998;14.858;2023-07-13T06:45:42;2.75;;;1.80;;
71888;SDS011;59762;49.998;14.858;2023-07-13T06:48:11;3.45;;;1.95;;
71888;SDS011;59762;49.998;14.858;2023-07-13T06:50:37;3.50;;;1.83;;
71888;SDS011;59762;49.998;14.858;2023-07-13T06:53:02;3.47;;;2.08;;
71888;SDS011;59762;49.998;14.858;2023-07-13T06:55:28;2.03;;;1.80;;
71888;SDS011;59762;49.998;14.858;2023-07-13T06:57:54;2.25;;;1.90;;
71888;SDS011;59762;49.998;14.858;2023-07-13T07:00:20;2.92;;;1.95;;
71888;SDS011;59762;49.998;14.858;2023-07-13T07:02:45;5.53;;;1.90;;
71888;SDS011;59762;49.998;14.858;2023-07-13T07:05:11;4.63;;;2.90;;
71888;SDS011;59762;49.998;14.858;2023-07-13T07:07:37;2.58;;;1.88;;
71888;SDS011;59762;49.998;14.858;2023-07-13T07:10:03;2.53;;;1.65;;
71888;SDS011;59762;49.998;14.858;2023-07-13T07:12:29;2.30;;;1.80;;
71888;SDS011;59762;49.998;14.858;2023-07-13T07:14:54;3.35;;;1.77;;
71888;SDS011;59762;49.998;14.858;2023-07-13T07:17:20;2.10;;;1.70;;
71888;SDS011;59762;49.998;14.858;2023-07-13T07:19:46;2.42;;;1.83;;
71888;SDS011;59762;49.998;14.858;2023-07-13T07:22:11;2.13;;;1.70;;
71888;SDS011;59762;49.998;14.858;2023-07-13T07:24:37;4.47;;;1.85;;
71888;SDS011;59762;49.998;14.858;2023-07-13T07:27:02;3.03;;;1.67;;
71888;SDS011;59762;49.998;14.858;2023-07-13T07:29:29;2.22;;;1.70;;
71888;SDS011;59762;49.998;14.858;2023-07-13T07:31:54;2.83;;;1.55;;
71888;SDS011;59762;49.998;14.858;2023-07-13T07:34:20;2.13;;;1.80;;
71888;SDS011;59762;49.998;14.858;2023-07-13T07:36:46;5.35;;;1.92;;
71888;SDS011;59762;49.998;14.858;2023-07-13T07:39:11;2.33;;;1.80;;
71888;SDS011;59762;49.998;14.858;2023-07-13T07:41:37;2.97;;;1.90;;
71888;SDS011;59762;49.998;14.858;2023-07-13T07:44:03;2.75;;;1.67;;
71888;SDS011;59762;49.998;14.858;2023-07-13T07:46:29;2.95;;;2.00;;
71888;SDS011;59762;49.998;14.858;2023-07-13T07:48:55;3.83;;;2.38;;
71888;SDS011;59762;49.998;14.858;2023-07-13T07:51:21;3.58;;;2.10;;
71888;SDS011;59762;49.998;14.858;2023-07-13T07:53:47;2.50;;;2.10;;
71888;SDS011;59762;49.998;14.858;2023-07-13T07:56:13;2.72;;;1.85;;
71888;SDS011;59762;49.998;14.858;2023-07-13T07:58:41;2.70;;;2.13;;
71888;SDS011;59762;49.998;14.858;2023-07-13T08:01:07;1.85;;;1.70;;
71888;SDS011;59762;49.998;14.858;2023-07-13T08:03:34;4.50;;;1.88;;
71888;SDS011;59762;49.998;14.858;2023-07-13T08:06:00;2.58;;;1.92;;
71888;SDS011;59762;49.998;14.858;2023-07-13T08:08:25;1.90;;;1.70;;
71888;SDS011;59762;49.998;14.858;2023-07-13T08:10:51;3.80;;;1.85;;
71888;SDS011;59762;49.998;14.858;2023-07-13T08:13:17;2.38;;;1.60;;
71888;SDS011;59762;49.998;14.858;2023-07-13T08:15:43;3.03;;;1.70;;
71888;SDS011;59762;49.998;14.858;2023-07-13T08:18:09;2.95;;;1.80;;
71888;SDS011;59762;49.998;14.858;2023-07-13T08:20:40;2.08;;;1.60;;
71888;SDS011;59762;49.998;14.858;2023-07-13T08:23:07;2.88;;;1.60;;
71888;SDS011;59762;49.998;14.858;2023-07-13T08:25:34;2.08;;;1.38;;
71888;SDS011;59762;49.998;14.858;2023-07-13T08:28:01;2.38;;;1.42;;
71888;SDS011;59762;49.998;14.858;2023-07-13T08:30:28;2.17;;;1.50;;
71888;SDS011;59762;49.998;14.858;2023-07-13T08:32:54;2.33;;;1.60;;
71888;SDS011;59762;49.998;14.858;2023-07-13T08:35:20;2.72;;;1.70;;
71888;SDS011;59762;49.998;14.858;2023-07-13T08:37:45;1.90;;;1.50;;
71888;SDS011;59762;49.998;14.858;2023-07-13T08:40:11;2.20;;;1.52;;
71888;SDS011;59762;49.998;14.858;2023-07-13T08:45:20;2.83;;;1.70;;
71888;SDS011;59762;49.998;14.858;2023-07-13T08:48:17;2.20;;;1.58;;
71888;SDS011;59762;49.998;14.858;2023-07-13T08:53:24;2.25;;;1.90;;
71888;SDS011;59762;49.998;14.858;2023-07-13T08:55:58;2.08;;;1.40;;
71888;SDS011;59762;49.998;14.858;2023-07-13T08:58:25;2.10;;;1.70;;
71888;SDS011;59762;49.998;14.858;2023-07-13T09:03:49;3.80;;;1.80;;
71888;SDS011;59762;49.998;14.858;2023-07-13T09:06:27;1.90;;;1.60;;
71888;SDS011;59762;49.998;14.858;2023-07-13T09:09:14;1.95;;;1.60;;
71888;SDS011;59762;49.998;14.858;2023-07-13T09:11:52;2.08;;;1.63;;
71888;SDS011;59762;49.998;14.858;2023-07-13T09:14:32;3.80;;;2.00;;
71888;SDS011;59762;49.998;14.858;2023-07-13T09:16:58;2.78;;;1.90;;
71888;SDS011;59762;49.998;14.858;2023-07-13T09:19:30;2.70;;;1.50;;
71888;SDS011;59762;49.998;14.858;2023-07-13T09:21:58;2.45;;;1.83;;
71888;SDS011;59762;49.998;14.858;2023-07-13T09:24:28;3.72;;;1.63;;
71888;SDS011;59762;49.998;14.858;2023-07-13T09:27:01;1.73;;;1.63;;
71888;SDS011;59762;49.998;14.858;2023-07-13T09:29:38;2.85;;;1.90;;
71888;SDS011;59762;49.998;14.858;2023-07-13T09:32:11;2.35;;;1.70;;
71888;SDS011;59762;49.998;14.858;2023-07-13T09:34:40;2.25;;;1.60;;
71888;SDS011;59762;49.998;14.858;2023-07-13T09:37:05;3.85;;;1.77;;
71888;SDS011;59762;49.998;14.858;2023-07-13T09:39:33;2.10;;;1.60;;
71888;SDS011;59762;49.998;14.858;2023-07-13T09:42:23;3.95;;;1.27;;
71888;SDS011;59762;49.998;14.858;2023-07-13T09:44:54;2.72;;;1.63;;
71888;SDS011;59762;49.998;14.858;2023-07-13T09:49:53;2.00;;;1.30;;
71888;SDS011;59762;49.998;14.858;2023-07-13T09:52:20;3.60;;;1.75;;
71888;SDS011;59762;49.998;14.858;2023-07-13T09:54:48;2.50;;;1.40;;
71888;SDS011;59762;49.998;14.858;2023-07-13T09:57:16;1.70;;;1.40;;
71888;SDS011;59762;49.998;14.858;2023-07-13T09:59:46;6.97;;;1.73;;
71888;SDS011;59762;49.998;14.858;2023-07-13T10:04:58;2.22;;;1.10;;
71888;SDS011;59762;49.998;14.858;2023-07-13T10:07:28;2.92;;;1.38;;
71888;SDS011;59762;49.998;14.858;2023-07-13T10:09:57;1.35;;;1.23;;
71888;SDS011;59762;49.998;14.858;2023-07-13T10:12:28;3.03;;;1.30;;
71888;SDS011;59762;49.998;14.858;2023-07-13T10:14:56;4.25;;;1.50;;
71888;SDS011;59762;49.998;14.858;2023-07-13T10:17:29;2.17;;;1.40;;
71888;SDS011;59762;49.998;14.858;2023-07-13T10:20:00;1.88;;;1.50;;
71888;SDS011;59762;49.998;14.858;2023-07-13T10:25:20;2.42;;;1.33;;
71888;SDS011;59762;49.998;14.858;2023-07-13T10:27:51;3.28;;;1.45;;
71888;SDS011;59762;49.998;14.858;2023-07-13T10:30:21;2.90;;;1.50;;
71888;SDS011;59762;49.998;14.858;2023-07-13T10:32:50;2.25;;;1.52;;
71888;SDS011;59762;49.998;14.858;2023-07-13T10:35:19;4.63;;;1.23;;
71888;SDS011;59762;49.998;14.858;2023-07-13T10:37:49;2.45;;;1.27;;
71888;SDS011;59762;49.998;14.858;2023-07-13T10:40:27;2.47;;;1.40;;
71888;SDS011;59762;49.998;14.858;2023-07-13T10:42:57;2.95;;;1.60;;
71888;SDS011;59762;49.998;14.858;2023-07-13T10:45:31;1.77;;;1.42;;
71888;SDS011;59762;49.998;14.858;2023-07-13T10:48:01;2.88;;;1.20;;
71888;SDS011;59762;49.998;14.858;2023-07-13T10:50:28;4.55;;;1.48;;
71888;SDS011;59762;49.998;14.858;2023-07-13T10:53:15;2.03;;;1.40;;
71888;SDS011;59762;49.998;14.858;2023-07-13T10:58:22;6.03;;;2.85;;
71888;SDS011;59762;49.998;14.858;2023-07-13T11:03:32;2.95;;;1.33;;
71888;SDS011;59762;49.998;14.858;2023-07-13T11:06:05;1.95;;;1.42;;
71888;SDS011;59762;49.998;14.858;2023-07-13T11:08:37;3.20;;;1.55;;
71888;SDS011;59762;49.998;14.858;2023-07-13T11:18:44;3.28;;;1.70;;
71888;SDS011;59762;49.998;14.858;2023-07-13T11:21:18;1.92;;;1.60;;
71888;SDS011;59762;49.998;14.858;2023-07-13T11:23:53;6.63;;;1.88;;
71888;SDS011;59762;49.998;14.858;2023-07-13T11:26:40;2.45;;;1.63;;
71888;SDS011;59762;49.998;14.858;2023-07-13T11:31:43;4.15;;;1.60;;
71888;SDS011;59762;49.998;14.858;2023-07-13T11:34:18;2.13;;;1.58;;
71888;SDS011;59762;49.998;14.858;2023-07-13T11:36:51;1.50;;;1.23;;
71888;SDS011;59762;49.998;14.858;2023-07-13T11:39:18;2.08;;;1.30;;
71888;SDS011;59762;49.998;14.858;2023-07-13T11:41:50;1.88;;;1.48;;
71888;SDS011;59762;49.998;14.858;2023-07-13T11:44:19;2.78;;;1.58;;
71888;SDS011;59762;49.998;14.858;2023-07-13T11:46:56;4.43;;;1.60;;
71888;SDS011;59762;49.998;14.858;2023-07-13T11:49:30;2.28;;;1.35;;
71888;SDS011;59762;49.998;14.858;2023-07-13T11:51:57;4.50;;;1.67;;
71888;SDS011;59762;49.998;14.858;2023-07-13T11:54:34;2.67;;;1.50;;
71888;SDS011;59762;49.998;14.858;2023-07-13T11:57:28;3.65;;;1.45;;
71888;SDS011;59762;49.998;14.858;2023-07-13T11:59:56;2.45;;;1.60;;
71888;SDS011;59762;49.998;14.858;2023-07-13T12:04:55;2.70;;;1.40;;
71888;SDS011;59762;49.998;14.858;2023-07-13T12:07:22;2.30;;;1.60;;
71888;SDS011;59762;49.998;14.858;2023-07-13T12:09:47;3.53;;;1.52;;
71888;SDS011;59762;49.998;14.858;2023-07-13T12:12:21;3.15;;;1.40;;
71888;SDS011;59762;49.998;14.858;2023-07-13T12:14:54;2.67;;;1.23;;
71888;SDS011;59762;49.998;14.858;2023-07-13T12:17:21;3.60;;;1.40;;
71888;SDS011;59762;49.998;14.858;2023-07-13T12:19:50;2.60;;;1.35;;
71888;SDS011;59762;49.998;14.858;2023-07-13T12:22:18;3.10;;;1.50;;
71888;SDS011;59762;49.998;14.858;2023-07-13T12:24:45;4.45;;;1.55;;
71888;SDS011;59762;49.998;14.858;2023-07-13T12:27:22;3.88;;;1.50;;
71888;SDS011;59762;49.998;14.858;2023-07-13T12:29:50;2.70;;;1.50;;
71888;SDS011;59762;49.998;14.858;2023-07-13T12:32:19;2.13;;;1.42;;
71888;SDS011;59762;49.998;14.858;2023-07-13T12:34:52;4.18;;;1.67;;
71888;SDS011;59762;49.998;14.858;2023-07-13T12:37:19;2.10;;;1.20;;
71888;SDS011;59762;49.998;14.858;2023-07-13T12:39:46;1.90;;;1.13;;
71888;SDS011;59762;49.998;14.858;2023-07-13T12:42:30;4.05;;;1.42;;
71888;SDS011;59762;49.998;14.858;2023-07-13T12:45:11;7.00;;;1.40;;
71888;SDS011;59762;49.998;14.858;2023-07-13T12:47:53;2.40;;;1.17;;
71888;SDS011;59762;49.998;14.858;2023-07-13T12:50:23;2.00;;;1.20;;
71888;SDS011;59762;49.998;14.858;2023-07-13T12:53:03;4.13;;;1.30;;
71888;SDS011;59762;49.998;14.858;2023-07-13T12:55:39;1.70;;;1.20;;
71888;SDS011;59762;49.998;14.858;2023-07-13T12:58:09;3.00;;;1.55;;
71888;SDS011;59762;49.998;14.858;2023-07-13T13:00:48;3.05;;;1.58;;
71888;SDS011;59762;49.998;14.858;2023-07-13T13:03:22;1.23;;;1.10;;
71888;SDS011;59762;49.998;14.858;2023-07-13T13:06:20;2.20;;;1.20;;
71888;SDS011;59762;49.998;14.858;2023-07-13T13:08:47;3.45;;;1.60;;
71888;SDS011;59762;49.998;14.858;2023-07-13T13:11:15;1.42;;;1.20;;
71888;SDS011;59762;49.998;14.858;2023-07-13T13:13:42;2.00;;;1.33;;
71888;SDS011;59762;49.998;14.858;2023-07-13T13:16:11;1.85;;;1.48;;
71888;SDS011;59762;49.998;14.858;2023-07-13T13:18:42;4.10;;;1.27;;
71888;SDS011;59762;49.998;14.858;2023-07-13T13:21:09;2.55;;;1.30;;
71888;SDS011;59762;49.998;14.858;2023-07-13T13:23:35;3.35;;;1.92;;
71888;SDS011;59762;49.998;14.858;2023-07-13T13:26:01;4.35;;;1.40;;
71888;SDS011;59762;49.998;14.858;2023-07-13T13:28:27;3.10;;;1.33;;
71888;SDS011;59762;49.998;14.858;2023-07-13T13:30:54;2.42;;;1.60;;
71888;SDS011;59762;49.998;14.858;2023-07-13T13:33:20;1.92;;;1.30;;
71888;SDS011;59762;49.998;14.858;2023-07-13T13:35:47;2.63;;;1.45;;
71888;SDS011;59762;49.998;14.858;2023-07-13T13:38:13;3.65;;;1.58;;
71888;SDS011;59762;49.998;14.858;2023-07-13T13:40:41;2.13;;;1.35;;
71888;SDS011;59762;49.998;14.858;2023-07-13T13:43:21;2.22;;;1.40;;
71888;SDS011;59762;49.998;14.858;2023-07-13T13:45:52;2.92;;;1.40;;
71888;SDS011;59762;49.998;14.858;2023-07-13T13:48:23;2.28;;;1.55;;
71888;SDS011;59762;49.998;14.858;2023-07-13T13:50:56;1.67;;;1.40;;
71888;SDS011;59762;49.998;14.858;2023-07-13T13:53:22;2.85;;;1.45;;
71888;SDS011;59762;49.998;14.858;2023-07-13T13:55:48;1.45;;;1.27;;
71888;SDS011;59762;49.998;14.858;2023-07-13T13:58:15;1.70;;;1.40;;
71888;SDS011;59762;49.998;14.858;2023-07-13T14:00:41;2.55;;;1.27;;
71888;SDS011;59762;49.998;14.858;2023-07-13T14:03:20;7.03;;;1.90;;
71888;SDS011;59762;49.998;14.858;2023-07-13T14:05:47;3.83;;;1.45;;
71888;SDS011;59762;49.998;14.858;2023-07-13T14:08:18;2.10;;;1.40;;
71888;SDS011;59762;49.998;14.858;2023-07-13T14:10:45;4.40;;;2.00;;
71888;SDS011;59762;49.998;14.858;2023-07-13T14:13:17;2.70;;;1.83;;
71888;SDS011;59762;49.998;14.858;2023-07-13T14:15:48;1.95;;;1.73;;
71888;SDS011;59762;49.998;14.858;2023-07-13T14:18:14;4.35;;;1.65;;
71888;SDS011;59762;49.998;14.858;2023-07-13T14:20:43;2.50;;;1.27;;
71888;SDS011;59762;49.998;14.858;2023-07-13T14:23:12;3.92;;;1.40;;
71888;SDS011;59762;49.998;14.858;2023-07-13T14:25:39;2.03;;;1.30;;
71888;SDS011;59762;49.998;14.858;2023-07-13T14:28:17;3.15;;;1.48;;
71888;SDS011;59762;49.998;14.858;2023-07-13T14:30:46;6.10;;;1.58;;
71888;SDS011;59762;49.998;14.858;2023-07-13T14:33:12;1.75;;;1.30;;
71888;SDS011;59762;49.998;14.858;2023-07-13T14:35:38;9.90;;;1.83;;
71888;SDS011;59762;49.998;14.858;2023-07-13T14:38:04;1.73;;;1.40;;
71888;SDS011;59762;49.998;14.858;2023-07-13T14:40:33;3.20;;;1.35;;
71888;SDS011;59762;49.998;14.858;2023-07-13T14:43:00;2.75;;;1.77;;
71888;SDS011;59762;49.998;14.858;2023-07-13T14:45:25;3.30;;;1.52;;
71888;SDS011;59762;49.998;14.858;2023-07-13T14:47:51;1.98;;;1.60;;
71888;SDS011;59762;49.998;14.858;2023-07-13T14:50:19;3.63;;;1.40;;
71888;SDS011;59762;49.998;14.858;2023-07-13T14:52:56;2.65;;;1.30;;
71888;SDS011;59762;49.998;14.858;2023-07-13T14:55:21;1.92;;;1.35;;
71888;SDS011;59762;49.998;14.858;2023-07-13T14:57:47;4.47;;;1.50;;
71888;SDS011;59762;49.998;14.858;2023-07-13T15:00:16;2.20;;;1.40;;
71888;SDS011;59762;49.998;14.858;2023-07-13T15:02:45;4.22;;;1.67;;
71888;SDS011;59762;49.998;14.858;2023-07-13T15:05:16;3.80;;;2.38;;
71888;SDS011;59762;49.998;14.858;2023-07-13T15:07:48;2.90;;;1.40;;
71888;SDS011;59762;49.998;14.858;2023-07-13T15:10:15;3.00;;;1.25;;
71888;SDS011;59762;49.998;14.858;2023-07-13T15:12:43;3.67;;;1.63;;
71888;SDS011;59762;49.998;14.858;2023-07-13T15:15:09;2.50;;;1.30;;
71888;SDS011;59762;49.998;14.858;2023-07-13T15:17:42;2.58;;;1.30;;
71888;SDS011;59762;49.998;14.858;2023-07-13T15:22:45;2.88;;;1.40;;